sensor_id;sensor_type;location;lat;lon;timestamp;pressure;altitude;pressure_sealevel;temperature;humidity
45763;BME280;37512;52.408;13.356;2022-12-05T00:01:52;101417.53;;;1.98;100.00
45763;BME280;37512;52.408;13.356;2022-12-05T00:05:53;101421.06;;;2.03;100.00
45763;BME280;37512;52.408;13.356;2022-12-05T00:09:55;101419.06;;;2.09;100.00
45763;BME280;37512;52.408;13.356;2022-12-05T00:13:59;101424.59;;;2.04;100.00
45763;BME280;37512;52.408;13.356;2022-12-05T00:18:01;101419.06;;;2.09;100.00
45763;BME280;37512;52.408;13.356;2022-12-05T00:22:02;101420.81;;;2.00;100.00
45763;BME280;37512;52.408;13.356;2022-12-05T00:26:04;101413.72;;;1.99;100.00
45763;BME280;37512;52.408;13.356;2022-12-05T00:30:06;101419.34;;;2.07;100.00
45763;BME280;37512;52.408;13.356;2022-12-05T00:34:09;101416.72;;;1.97;100.00
45763;BME280;37512;52.408;13.356;2022-12-05T00:38:10;101423.50;;;2.05;100.00
45763;BME280;37512;52.408;13.356;2022-12-05T00:42:11;101419.19;;;1.99;100.00
45763;BME280;37512;52.408;13.356;2022-12-05T00:46:15;101414.63;;;1.89;100.00
45763;BME280;37512;52.408;13.356;2022-12-05T00:50:18;101420.59;;;1.96;100.00
45763;BME280;37512;52.408;13.356;2022-12-05T00:54:19;101418.59;;;2.02;100.00
45763;BME280;37512;52.408;13.356;2022-12-05T00:58:20;101405.59;;;1.88;100.00
45763;BME280;37512;52.408;13.356;2022-12-05T01:02:22;101411.53;;;1.96;100.00
45763;BME280;37512;52.408;13.356;2022-12-05T01:06:25;101406.59;;;1.98;100.00
45763;BME280;37512;52.408;13.356;2022-12-05T01:10:26;101408.47;;;2.02;100.00
45763;BME280;37512;52.408;13.356;2022-12-05T01:14:28;101404.16;;;1.96;100.00
45763;BME280;37512;52.408;13.356;2022-12-05T01:18:29;101406.53;;;2.03;100.00
45763;BME280;37512;52.408;13.356;2022-12-05T01:22:31;101398.50;;;1.87;100.00
45763;BME280;37512;52.408;13.356;2022-12-05T01:26:32;101400.84;;;1.99;100.00
45763;BME280;37512;52.408;13.356;2022-12-05T01:30:39;101392.09;;;1.97;100.00
45763;BME280;37512;52.408;13.356;2022-12-05T01:34:40;101395.81;;;2.06;100.00
45763;BME280;37512;52.408;13.356;2022-12-05T01:38:43;101384.88;;;2.06;100.00
45763;BME280;37512;52.408;13.356;2022-12-05T01:42:44;101384.63;;;2.03;100.00
45763;BME280;37512;52.408;13.356;2022-12-05T01:46:47;101383.28;;;2.00;100.00
45763;BME280;37512;52.408;13.356;2022-12-05T01:50:49;101387.75;;;1.96;100.00
45763;BME280;37512;52.408;13.356;2022-12-05T01:54:54;101386.34;;;1.99;100.00
45763;BME280;37512;52.408;13.356;2022-12-05T01:58:58;101390.09;;;2.03;100.00
45763;BME280;37512;52.408;13.356;2022-12-05T02:03:05;101380.03;;;1.98;100.00
45763;BME280;37512;52.408;13.356;2022-12-05T02:07:07;101383.13;;;1.92;100.00
45763;BME280;37512;52.408;13.356;2022-12-05T02:11:09;101379.28;;;1.93;100.00
45763;BME280;37512;52.408;13.356;2022-12-05T02:15:32;101388.75;;;2.00;100.00
45763;BME280;37512;52.408;13.356;2022-12-05T02:20:03;101388.19;;;2.03;100.00
45763;BME280;37512;52.408;13.356;2022-12-05T02:33:05;101394.94;;;2.11;100.00
45763;BME280;37512;52.408;13.356;2022-12-05T02:41:26;101386.13;;;2.14;100.00
45763;BME280;37512;52.408;13.356;2022-12-05T02:45:34;101381.53;;;2.09;100.00
45763;BME280;37512;52.408;13.356;2022-12-05T02:49:39;101375.38;;;1.99;100.00
45763;BME280;37512;52.408;13.356;2022-12-05T02:53:42;101376.84;;;2.15;100.00
45763;BME280;37512;52.408;13.356;2022-12-05T02:57:49;101365.63;;;2.12;100.00
45763;BME280;37512;52.408;13.356;2022-12-05T03:01:52;101363.25;;;2.29;100.00
45763;BME280;37512;52.408;13.356;2022-12-05T03:06:02;101360.41;;;2.15;100.00
45763;BME280;37512;52.408;13.356;2022-12-05T03:10:07;101360.84;;;2.22;100.00
45763;BME280;37512;52.408;13.356;2022-12-05T03:14:12;101361.91;;;2.26;100.00
45763;BME280;37512;52.408;13.356;2022-12-05T03:18:21;101359.91;;;2.32;100.00
45763;BME280;37512;52.408;13.356;2022-12-05T03:22:41;101360.78;;;2.27;100.00
45763;BME280;37512;52.408;13.356;2022-12-05T03:31:01;101369.59;;;2.24;100.00
45763;BME280;37512;52.408;13.356;2022-12-05T03:35:27;101372.88;;;2.26;100.00
45763;BME280;37512;52.408;13.356;2022-12-05T03:39:32;101366.69;;;2.40;100.00
45763;BME280;37512;52.408;13.356;2022-12-05T03:43:43;101360.84;;;2.46;100.00
45763;BME280;37512;52.408;13.356;2022-12-05T03:47:55;101355.63;;;2.45;100.00
45763;BME280;37512;52.408;13.356;2022-12-05T03:52:10;101346.91;;;2.43;100.00
45763;BME280;37512;52.408;13.356;2022-12-05T03:56:17;101358.56;;;2.29;100.00
45763;BME280;37512;52.408;13.356;2022-12-05T04:00:21;101358.38;;;2.45;100.00
45763;BME280;37512;52.408;13.356;2022-12-05T04:04:28;101356.38;;;2.50;100.00
45763;BME280;37512;52.408;13.356;2022-12-05T04:08:36;101358.84;;;2.52;100.00
45763;BME280;37512;52.408;13.356;2022-12-05T04:12:40;101360.59;;;2.43;100.00
45763;BME280;37512;52.408;13.356;2022-12-05T04:17:04;101358.75;;;2.38;100.00
45763;BME280;37512;52.408;13.356;2022-12-05T04:21:09;101353.94;;;2.49;100.00
45763;BME280;37512;52.408;13.356;2022-12-05T04:25:36;101348.84;;;2.42;100.00
45763;BME280;37512;52.408;13.356;2022-12-05T04:29:57;101350.75;;;2.42;100.00
45763;BME280;37512;52.408;13.356;2022-12-05T04:34:04;101346.09;;;2.42;100.00
45763;BME280;37512;52.408;13.356;2022-12-05T04:38:13;101341.03;;;2.30;100.00
45763;BME280;37512;52.408;13.356;2022-12-05T04:42:19;101352.00;;;2.30;100.00
45763;BME280;37512;52.408;13.356;2022-12-05T04:46:22;101356.81;;;2.39;100.00
45763;BME280;37512;52.408;13.356;2022-12-05T04:50:28;101361.56;;;2.33;100.00
45763;BME280;37512;52.408;13.356;2022-12-05T04:58:43;101355.25;;;2.33;100.00
45763;BME280;37512;52.408;13.356;2022-12-05T05:02:46;101359.03;;;2.37;100.00
45763;BME280;37512;52.408;13.356;2022-12-05T05:06:49;101356.88;;;2.34;100.00
45763;BME280;37512;52.408;13.356;2022-12-05T05:11:00;101360.06;;;2.41;100.00
45763;BME280;37512;52.408;13.356;2022-12-05T05:15:04;101348.59;;;2.39;100.00
45763;BME280;37512;52.408;13.356;2022-12-05T05:19:07;101349.63;;;2.43;100.00
45763;BME280;37512;52.408;13.356;2022-12-05T05:23:10;101356.38;;;2.50;100.00
45763;BME280;37512;52.408;13.356;2022-12-05T05:27:12;101358.84;;;2.52;100.00
45763;BME280;37512;52.408;13.356;2022-12-05T05:31:15;101357.06;;;2.61;100.00
45763;BME280;37512;52.408;13.356;2022-12-05T05:35:18;101347.59;;;2.54;100.00
45763;BME280;37512;52.408;13.356;2022-12-05T05:39:21;101350.91;;;2.50;100.00
45763;BME280;37512;52.408;13.356;2022-12-05T05:43:23;101350.28;;;2.35;100.00
45763;BME280;37512;52.408;13.356;2022-12-05T05:47:24;101356.16;;;2.47;100.00
45763;BME280;37512;52.408;13.356;2022-12-05T05:51:26;101358.84;;;2.52;100.00
45763;BME280;37512;52.408;13.356;2022-12-05T05:55:29;101355.50;;;2.55;100.00
45763;BME280;37512;52.408;13.356;2022-12-05T05:59:31;101351.94;;;2.55;100.00
45763;BME280;37512;52.408;13.356;2022-12-05T06:03:33;101356.00;;;2.38;100.00
45763;BME280;37512;52.408;13.356;2022-12-05T06:07:35;101370.22;;;2.40;100.00
45763;BME280;37512;52.408;13.356;2022-12-05T06:11:36;101361.28;;;2.54;100.00
45763;BME280;37512;52.408;13.356;2022-12-05T06:15:38;101363.13;;;2.58;100.00
45763;BME280;37512;52.408;13.356;2022-12-05T06:19:39;101369.28;;;2.50;100.00
45763;BME280;37512;52.408;13.356;2022-12-05T06:23:40;101369.78;;;2.52;100.00
45763;BME280;37512;52.408;13.356;2022-12-05T06:27:42;101373.94;;;2.49;100.00
45763;BME280;37512;52.408;13.356;2022-12-05T06:31:43;101373.19;;;2.44;100.00
45763;BME280;37512;52.408;13.356;2022-12-05T06:35:45;101385.19;;;2.48;100.00
45763;BME280;37512;52.408;13.356;2022-12-05T06:39:47;101387.63;;;2.49;100.00
45763;BME280;37512;52.408;13.356;2022-12-05T06:43:50;101390.09;;;2.51;100.00
45763;BME280;37512;52.408;13.356;2022-12-05T06:47:52;101390.09;;;2.51;100.00
45763;BME280;37512;52.408;13.356;2022-12-05T06:51:53;101393.41;;;2.48;100.00
45763;BME280;37512;52.408;13.356;2022-12-05T06:56:00;101400.53;;;2.49;100.00
45763;BME280;37512;52.408;13.356;2022-12-05T07:00:03;101402.97;;;2.50;100.00
45763;BME280;37512;52.408;13.356;2022-12-05T07:04:23;101406.53;;;2.51;100.00
45763;BME280;37512;52.408;13.356;2022-12-05T07:08:25;101407.50;;;2.60;100.00
45763;BME280;37512;52.408;13.356;2022-12-05T07:12:26;101405.22;;;2.67;100.00
45763;BME280;37512;52.408;13.356;2022-12-05T07:16:28;101410.09;;;2.70;100.00
45763;BME280;37512;52.408;13.356;2022-12-05T07:20:29;101408.59;;;2.59;100.00
45763;BME280;37512;52.408;13.356;2022-12-05T07:24:51;101404.91;;;2.69;100.00
45763;BME280;37512;52.408;13.356;2022-12-05T07:28:55;101406.41;;;2.80;100.00
45763;BME280;37512;52.408;13.356;2022-12-05T07:32:57;101409.00;;;2.71;100.00
45763;BME280;37512;52.408;13.356;2022-12-05T07:36:59;101407.72;;;2.83;100.00
45763;BME280;37512;52.408;13.356;2022-12-05T07:41:22;101410.97;;;2.47;100.00
45763;BME280;37512;52.408;13.356;2022-12-05T07:45:24;101411.34;;;2.59;100.00
45763;BME280;37512;52.408;13.356;2022-12-05T07:49:25;101409.28;;;2.70;100.00
45763;BME280;37512;52.408;13.356;2022-12-05T07:53:28;101403.56;;;2.66;100.00
45763;BME280;37512;52.408;13.356;2022-12-05T07:57:30;101402.91;;;2.56;100.00
45763;BME280;37512;52.408;13.356;2022-12-05T08:01:31;101406.63;;;2.65;100.00
45763;BME280;37512;52.408;13.356;2022-12-05T08:05:33;101409.44;;;2.79;100.00
45763;BME280;37512;52.408;13.356;2022-12-05T08:09:35;101413.66;;;2.71;100.00
45763;BME280;37512;52.408;13.356;2022-12-05T08:13:37;101416.09;;;2.72;100.00
45763;BME280;37512;52.408;13.356;2022-12-05T08:17:38;101416.28;;;2.81;100.00
45763;BME280;37512;52.408;13.356;2022-12-05T08:21:40;101403.81;;;2.70;100.00
45763;BME280;37512;52.408;13.356;2022-12-05T08:25:41;101419.56;;;2.59;100.00
45763;BME280;37512;52.408;13.356;2022-12-05T08:29:43;101410.19;;;2.65;100.00
45763;BME280;37512;52.408;13.356;2022-12-05T08:33:45;101419.28;;;2.80;100.00
45763;BME280;37512;52.408;13.356;2022-12-05T08:37:46;101421.44;;;2.83;100.00
45763;BME280;37512;52.408;13.356;2022-12-05T08:41:48;101421.44;;;2.83;100.00
45763;BME280;37512;52.408;13.356;2022-12-05T08:45:51;101413.91;;;2.75;100.00
45763;BME280;37512;52.408;13.356;2022-12-05T08:49:53;101419.09;;;2.76;100.00
45763;BME280;37512;52.408;13.356;2022-12-05T08:53:54;101413.13;;;2.69;100.00
45763;BME280;37512;52.408;13.356;2022-12-05T08:57:56;101414.41;;;2.77;100.00
45763;BME280;37512;52.408;13.356;2022-12-05T09:01:58;101413.22;;;2.83;100.00
45763;BME280;37512;52.408;13.356;2022-12-05T09:06:15;101420.09;;;2.80;100.00
45763;BME280;37512;52.408;13.356;2022-12-05T09:10:18;101419.81;;;3.01;100.00
45763;BME280;37512;52.408;13.356;2022-12-05T09:14:19;101412.72;;;3.00;100.00
45763;BME280;37512;52.408;13.356;2022-12-05T09:18:21;101409.06;;;3.04;100.00
45763;BME280;37512;52.408;13.356;2022-12-05T09:22:22;101414.13;;;2.97;100.00
45763;BME280;37512;52.408;13.356;2022-12-05T09:26:28;101419.38;;;3.12;100.00
45763;BME280;37512;52.408;13.356;2022-12-05T09:30:30;101411.00;;;3.04;100.00
45763;BME280;37512;52.408;13.356;2022-12-05T09:34:31;101409.44;;;3.17;100.00
45763;BME280;37512;52.408;13.356;2022-12-05T09:38:33;101412.41;;;2.82;100.00
45763;BME280;37512;52.408;13.356;2022-12-05T09:42:39;101406.72;;;2.79;100.00
45763;BME280;37512;52.408;13.356;2022-12-05T09:50:56;101409.91;;;2.86;100.00
45763;BME280;37512;52.408;13.356;2022-12-05T09:55:08;101416.47;;;2.85;100.00
45763;BME280;37512;52.408;13.356;2022-12-05T09:59:13;101402.19;;;2.88;100.00
45763;BME280;37512;52.408;13.356;2022-12-05T10:03:23;101409.97;;;2.81;100.00
45763;BME280;37512;52.408;13.356;2022-12-05T10:07:34;101404.69;;;2.84;100.00
45763;BME280;37512;52.408;13.356;2022-12-05T10:11:44;101408.66;;;2.97;100.00
45763;BME280;37512;52.408;13.356;2022-12-05T10:15:49;101402.72;;;2.90;100.00
45763;BME280;37512;52.408;13.356;2022-12-05T10:20:02;101399.31;;;2.79;100.00
45763;BME280;37512;52.408;13.356;2022-12-05T10:24:12;101401.31;;;2.92;100.00
45763;BME280;37512;52.408;13.356;2022-12-05T10:28:35;101402.31;;;2.78;100.00
45763;BME280;37512;52.408;13.356;2022-12-05T10:37:17;101407.75;;;3.02;100.00
45763;BME280;37512;52.408;13.356;2022-12-05T10:41:19;101403.97;;;2.79;100.00
45763;BME280;37512;52.408;13.356;2022-12-05T10:45:22;101407.84;;;2.97;100.00
45763;BME280;37512;52.408;13.356;2022-12-05T10:49:24;101401.31;;;2.92;100.00
45763;BME280;37512;52.408;13.356;2022-12-05T10:57:34;101395.88;;;3.06;100.00
45763;BME280;37512;52.408;13.356;2022-12-05T11:01:37;101400.25;;;3.07;100.00
45763;BME280;37512;52.408;13.356;2022-12-05T11:05:39;101391.59;;;3.00;100.00
45763;BME280;37512;52.408;13.356;2022-12-05T11:09:46;101392.91;;;3.22;100.00
45763;BME280;37512;52.408;13.356;2022-12-05T11:13:59;101395.72;;;3.17;100.00
45763;BME280;37512;52.408;13.356;2022-12-05T11:18:21;101397.22;;;3.42;100.00
45763;BME280;37512;52.408;13.356;2022-12-05T11:22:34;101398.13;;;3.37;100.00
45763;BME280;37512;52.408;13.356;2022-12-05T11:26:36;101392.59;;;3.23;100.00
45763;BME280;37512;52.408;13.356;2022-12-05T11:30:37;101394.25;;;3.24;100.00
45763;BME280;37512;52.408;13.356;2022-12-05T11:38:49;101386.91;;;3.20;100.00
45763;BME280;37512;52.408;13.356;2022-12-05T11:43:03;101389.38;;;3.35;100.00
45763;BME280;37512;52.408;13.356;2022-12-05T11:51:32;101370.97;;;3.22;100.00
45763;BME280;37512;52.408;13.356;2022-12-05T12:00:04;101377.63;;;3.16;100.00
45763;BME280;37512;52.408;13.356;2022-12-05T12:08:53;101376.28;;;3.32;100.00
45763;BME280;37512;52.408;13.356;2022-12-05T12:21:40;101372.97;;;3.16;100.00
45763;BME280;37512;52.408;13.356;2022-12-05T12:26:06;101363.63;;;3.17;100.00
45763;BME280;37512;52.408;13.356;2022-12-05T12:35:16;101366.09;;;3.00;100.00
45763;BME280;37512;52.408;13.356;2022-12-05T12:39:51;101358.53;;;3.10;100.00
45763;BME280;37512;52.408;13.356;2022-12-05T12:48:43;101356.38;;;3.07;100.00
45763;BME280;37512;52.408;13.356;2022-12-05T13:05:43;101349.91;;;3.17;100.00
45763;BME280;37512;52.408;13.356;2022-12-05T13:09:57;101343.03;;;3.20;100.00
45763;BME280;37512;52.408;13.356;2022-12-05T13:14:01;101351.06;;;3.30;100.00
45763;BME280;37512;52.408;13.356;2022-12-05T13:18:04;101352.22;;;3.43;100.00
45763;BME280;37512;52.408;13.356;2022-12-05T13:22:06;101346.59;;;3.34;100.00
45763;BME280;37512;52.408;13.356;2022-12-05T13:26:10;101337.78;;;3.51;100.00
45763;BME280;37512;52.408;13.356;2022-12-05T13:30:16;101340.34;;;3.47;100.00
45763;BME280;37512;52.408;13.356;2022-12-05T13:38:33;101342.31;;;3.61;100.00
45763;BME280;37512;52.408;13.356;2022-12-05T13:43:02;101348.69;;;3.56;100.00
45763;BME280;37512;52.408;13.356;2022-12-05T13:47:06;101352.06;;;3.67;100.00
45763;BME280;37512;52.408;13.356;2022-12-05T13:55:35;101354.47;;;3.54;100.00
45763;BME280;37512;52.408;13.356;2022-12-05T14:04:00;101354.34;;;3.46;100.00
45763;BME280;37512;52.408;13.356;2022-12-05T14:16:54;101357.84;;;3.51;100.00
45763;BME280;37512;52.408;13.356;2022-12-05T14:34:05;101345.47;;;3.68;100.00
45763;BME280;37512;52.408;13.356;2022-12-05T14:38:26;101358.28;;;3.72;100.00
45763;BME280;37512;52.408;13.356;2022-12-05T14:42:41;101350.94;;;3.68;100.00
45763;BME280;37512;52.408;13.356;2022-12-05T14:46:43;101341.16;;;3.62;100.00
45763;BME280;37512;52.408;13.356;2022-12-05T14:50:48;101346.03;;;3.65;100.00
45763;BME280;37512;52.408;13.356;2022-12-05T14:54:56;101346.47;;;3.58;100.00
45763;BME280;37512;52.408;13.356;2022-12-05T15:03:28;101343.34;;;3.92;100.00
45763;BME280;37512;52.408;13.356;2022-12-05T15:07:37;101351.25;;;3.80;100.00
45763;BME280;37512;52.408;13.356;2022-12-05T15:11:39;101349.72;;;3.74;100.00
45763;BME280;37512;52.408;13.356;2022-12-05T15:16:00;101349.31;;;3.67;100.00
45763;BME280;37512;52.408;13.356;2022-12-05T15:20:13;101343.00;;;3.66;100.00
45763;BME280;37512;52.408;13.356;2022-12-05T15:24:18;101353.19;;;3.80;100.00
45763;BME280;37512;52.408;13.356;2022-12-05T15:28:19;101353.09;;;3.71;100.00
45763;BME280;37512;52.408;13.356;2022-12-05T15:32:24;101371.88;;;3.64;100.00
45763;BME280;37512;52.408;13.356;2022-12-05T15:36:33;101373.13;;;3.85;100.00
45763;BME280;37512;52.408;13.356;2022-12-05T15:40:35;101376.38;;;3.87;100.00
45763;BME280;37512;52.408;13.356;2022-12-05T15:44:38;101375.88;;;3.99;100.00
45763;BME280;37512;52.408;13.356;2022-12-05T15:48:39;101372.03;;;4.14;100.00
45763;BME280;37512;52.408;13.356;2022-12-05T15:52:54;101377.81;;;3.98;100.00
45763;BME280;37512;52.408;13.356;2022-12-05T15:57:08;101374.56;;;3.83;100.00
45763;BME280;37512;52.408;13.356;2022-12-05T16:01:22;101382.59;;;3.79;100.00
45763;BME280;37512;52.408;13.356;2022-12-05T16:05:32;101373.47;;;3.97;100.00
45763;BME280;37512;52.408;13.356;2022-12-05T16:09:38;101378.94;;;3.97;100.00
45763;BME280;37512;52.408;13.356;2022-12-05T16:13:55;101365.41;;;4.15;100.00
45763;BME280;37512;52.408;13.356;2022-12-05T16:18:02;101366.94;;;4.21;100.00
45763;BME280;37512;52.408;13.356;2022-12-05T16:30:17;101370.50;;;3.94;100.00
45763;BME280;37512;52.408;13.356;2022-12-05T16:34:34;101367.63;;;3.99;100.00
45763;BME280;37512;52.408;13.356;2022-12-05T16:38:36;101364.81;;;3.76;100.00
45763;BME280;37512;52.408;13.356;2022-12-05T16:42:38;101365.00;;;3.94;100.00
45763;BME280;37512;52.408;13.356;2022-12-05T16:46:41;101366.44;;;4.05;100.00
45763;BME280;37512;52.408;13.356;2022-12-05T16:50:43;101368.59;;;4.08;100.00
45763;BME280;37512;52.408;13.356;2022-12-05T16:54:46;101365.72;;;4.13;100.00
45763;BME280;37512;52.408;13.356;2022-12-05T16:58:49;101364.81;;;4.04;100.00
45763;BME280;37512;52.408;13.356;2022-12-05T17:02:50;101363.28;;;3.84;100.00
45763;BME280;37512;52.408;13.356;2022-12-05T17:06:56;101366.25;;;4.02;100.00
45763;BME280;37512;52.408;13.356;2022-12-05T17:10:58;101361.75;;;3.92;100.00
45763;BME280;37512;52.408;13.356;2022-12-05T17:15:01;101358.69;;;3.80;100.00
45763;BME280;37512;52.408;13.356;2022-12-05T17:19:03;101364.69;;;3.82;100.00
45763;BME280;37512;52.408;13.356;2022-12-05T17:23:05;101366.84;;;3.98;100.00
45763;BME280;37512;52.408;13.356;2022-12-05T17:27:11;101359.50;;;4.08;100.00
45763;BME280;37512;52.408;13.356;2022-12-05T17:31:16;101361.97;;;3.95;100.00
45763;BME280;37512;52.408;13.356;2022-12-05T17:35:20;101363.69;;;3.91;100.00
45763;BME280;37512;52.408;13.356;2022-12-05T17:39:22;101364.97;;;3.66;100.00
45763;BME280;37512;52.408;13.356;2022-12-05T17:43:29;101365.22;;;3.84;100.00
45763;BME280;37512;52.408;13.356;2022-12-05T17:47:30;101360.13;;;3.77;100.00
45763;BME280;37512;52.408;13.356;2022-12-05T17:51:32;101371.69;;;3.74;100.00
45763;BME280;37512;52.408;13.356;2022-12-05T17:55:33;101368.00;;;3.65;100.00
45763;BME280;37512;52.408;13.356;2022-12-05T17:59:35;101378.41;;;3.68;100.00
45763;BME280;37512;52.408;13.356;2022-12-05T18:03:38;101378.59;;;3.71;100.00
45763;BME280;37512;52.408;13.356;2022-12-05T18:07:41;101375.41;;;3.50;100.00
45763;BME280;37512;52.408;13.356;2022-12-05T18:11:43;101377.25;;;3.55;100.00
45763;BME280;37512;52.408;13.356;2022-12-05T18:15:46;101382.44;;;3.56;100.00
45763;BME280;37512;52.408;13.356;2022-12-05T18:19:48;101366.81;;;3.24;100.00
45763;BME280;37512;52.408;13.356;2022-12-05T18:23:50;101375.47;;;3.31;100.00
45763;BME280;37512;52.408;13.356;2022-12-05T18:27:51;101374.09;;;3.48;100.00
45763;BME280;37512;52.408;13.356;2022-12-05T18:31:53;101376.97;;;3.56;100.00
45763;BME280;37512;52.408;13.356;2022-12-05T18:35:54;101377.38;;;3.64;100.00
45763;BME280;37512;52.408;13.356;2022-12-05T18:39:56;101373.72;;;3.68;100.00
45763;BME280;37512;52.408;13.356;2022-12-05T18:43:57;101384.31;;;3.75;100.00
45763;BME280;37512;52.408;13.356;2022-12-05T18:47:59;101376.66;;;3.58;100.00
45763;BME280;37512;52.408;13.356;2022-12-05T18:52:20;101373.47;;;3.51;100.00
45763;BME280;37512;52.408;13.356;2022-12-05T18:56:33;101368.81;;;3.51;100.00
45763;BME280;37512;52.408;13.356;2022-12-05T19:00:35;101364.25;;;3.47;100.00
45763;BME280;37512;52.408;13.356;2022-12-05T19:04:36;101375.47;;;3.31;100.00
45763;BME280;37512;52.408;13.356;2022-12-05T19:08:38;101382.94;;;3.45;100.00
45763;BME280;37512;52.408;13.356;2022-12-05T19:12:39;101376.56;;;3.30;100.00
45763;BME280;37512;52.408;13.356;2022-12-05T19:16:41;101386.72;;;3.30;100.00
45763;BME280;37512;52.408;13.356;2022-12-05T19:20:49;101387.56;;;3.44;100.00
45763;BME280;37512;52.408;13.356;2022-12-05T19:24:51;101378.94;;;3.37;100.00
45763;BME280;37512;52.408;13.356;2022-12-05T19:28:53;101388.94;;;3.47;100.00
45763;BME280;37512;52.408;13.356;2022-12-05T19:32:57;101392.63;;;3.04;100.00
45763;BME280;37512;52.408;13.356;2022-12-05T19:36:59;101393.72;;;3.22;100.00
45763;BME280;37512;52.408;13.356;2022-12-05T19:41:02;101381.72;;;3.18;100.00
45763;BME280;37512;52.408;13.356;2022-12-05T19:45:04;101387.56;;;3.11;100.00
45763;BME280;37512;52.408;13.356;2022-12-05T19:49:13;101390.09;;;2.89;100.00
45763;BME280;37512;52.408;13.356;2022-12-05T19:53:23;101394.84;;;2.83;100.00
45763;BME280;37512;52.408;13.356;2022-12-05T19:57:25;101398.47;;;2.98;100.00
45763;BME280;37512;52.408;13.356;2022-12-05T20:01:33;101399.00;;;2.81;100.00
45763;BME280;37512;52.408;13.356;2022-12-05T20:05:35;101397.88;;;2.82;100.00
45763;BME280;37512;52.408;13.356;2022-12-05T20:09:40;101395.38;;;3.04;100.00
45763;BME280;37512;52.408;13.356;2022-12-05T20:13:42;101397.00;;;2.86;100.00
45763;BME280;37512;52.408;13.356;2022-12-05T20:17:48;101400.56;;;2.87;100.00
45763;BME280;37512;52.408;13.356;2022-12-05T20:21:53;101406.03;;;2.68;100.00
45763;BME280;37512;52.408;13.356;2022-12-05T20:26:10;101404.47;;;2.62;100.00
45763;BME280;37512;52.408;13.356;2022-12-05T20:30:11;101405.06;;;2.59;100.00
45763;BME280;37512;52.408;13.356;2022-12-05T20:34:27;101396.22;;;2.62;100.00
45763;BME280;37512;52.408;13.356;2022-12-05T20:38:29;101403.09;;;2.83;100.00
45763;BME280;37512;52.408;13.356;2022-12-05T20:42:30;101400.72;;;2.77;100.00
45763;BME280;37512;52.408;13.356;2022-12-05T20:46:33;101396.75;;;2.64;100.00
45763;BME280;37512;52.408;13.356;2022-12-05T20:50:35;101398.84;;;2.72;100.00
45763;BME280;37512;52.408;13.356;2022-12-05T20:54:37;101395.44;;;2.37;100.00
45763;BME280;37512;52.408;13.356;2022-12-05T20:58:39;101392.69;;;2.61;100.00
45763;BME280;37512;52.408;13.356;2022-12-05T21:02:41;101386.25;;;2.71;100.00
45763;BME280;37512;52.408;13.356;2022-12-05T21:06:42;101391.63;;;2.38;100.00
45763;BME280;37512;52.408;13.356;2022-12-05T21:10:47;101389.03;;;2.47;100.00
45763;BME280;37512;52.408;13.356;2022-12-05T21:14:49;101386.16;;;2.57;100.00
45763;BME280;37512;52.408;13.356;2022-12-05T21:18:52;101389.06;;;2.85;100.00
45763;BME280;37512;52.408;13.356;2022-12-05T21:22:55;101381.22;;;2.97;100.00
45763;BME280;37512;52.408;13.356;2022-12-05T21:26:57;101372.47;;;2.57;100.00
45763;BME280;37512;52.408;13.356;2022-12-05T21:31:10;101378.63;;;2.87;100.00
45763;BME280;37512;52.408;13.356;2022-12-05T21:35:12;101374.91;;;2.59;100.00
45763;BME280;37512;52.408;13.356;2022-12-05T21:39:14;101373.38;;;2.71;100.00
45763;BME280;37512;52.408;13.356;2022-12-05T21:43:15;101376.41;;;2.70;100.00
45763;BME280;37512;52.408;13.356;2022-12-05T21:47:17;101372.00;;;2.69;100.00
45763;BME280;37512;52.408;13.356;2022-12-05T21:51:19;101373.56;;;2.56;100.00
45763;BME280;37512;52.408;13.356;2022-12-05T21:55:21;101382.88;;;2.12;100.00
45763;BME280;37512;52.408;13.356;2022-12-05T21:59:22;101377.06;;;2.19;100.00
45763;BME280;37512;52.408;13.356;2022-12-05T22:03:24;101384.63;;;2.27;100.00
45763;BME280;37512;52.408;13.356;2022-12-05T22:07:25;101384.72;;;2.41;100.00
45763;BME280;37512;52.408;13.356;2022-12-05T22:11:27;101385.97;;;2.29;100.00
45763;BME280;37512;52.408;13.356;2022-12-05T22:15:28;101385.25;;;2.43;100.00
45763;BME280;37512;52.408;13.356;2022-12-05T22:19:30;101370.75;;;2.18;100.00
45763;BME280;37512;52.408;13.356;2022-12-05T22:23:33;101375.88;;;2.25;100.00
45763;BME280;37512;52.408;13.356;2022-12-05T22:27:34;101365.75;;;2.25;100.00
45763;BME280;37512;52.408;13.356;2022-12-05T22:31:36;101363.66;;;2.17;100.00
45763;BME280;37512;52.408;13.356;2022-12-05T22:35:37;101358.66;;;2.43;100.00
45763;BME280;37512;52.408;13.356;2022-12-05T22:39:39;101361.38;;;2.24;100.00
45763;BME280;37512;52.408;13.356;2022-12-05T22:43:42;101361.47;;;2.19;100.00
45763;BME280;37512;52.408;13.356;2022-12-05T22:47:44;101357.31;;;2.22;100.00
45763;BME280;37512;52.408;13.356;2022-12-05T22:51:45;101348.16;;;2.07;100.00
45763;BME280;37512;52.408;13.356;2022-12-05T22:55:47;101347.03;;;1.90;100.00
45763;BME280;37512;52.408;13.356;2022-12-05T22:59:49;101341.75;;;1.93;100.00
45763;BME280;37512;52.408;13.356;2022-12-05T23:04:09;101338.25;;;2.12;100.00
45763;BME280;37512;52.408;13.356;2022-12-05T23:08:11;101329.13;;;2.21;100.00
45763;BME280;37512;52.408;13.356;2022-12-05T23:12:13;101327.00;;;2.13;100.00
45763;BME280;37512;52.408;13.356;2022-12-05T23:16:17;101310.75;;;1.98;100.00